createdAt,value
2018-08-17T00:00:02.405Z,17.29
2018-08-17T00:00:06.497Z,17.29
2018-08-17T00:00:10.587Z,17.29
2018-08-17T00:00:14.786Z,17.28
2018-08-17T00:00:18.881Z,17.28
2018-08-17T00:00:23.190Z,17.29
2018-08-17T00:00:27.389Z,17.28
2018-08-17T00:00:31.492Z,17.28
2018-08-17T00:00:35.698Z,17.29
2018-08-17T00:00:39.845Z,17.27
2018-08-17T00:00:44.147Z,17.28
2018-08-17T00:00:48.447Z,17.27
2018-08-17T00:00:52.754Z,17.27
2018-08-17T00:00:56.855Z,17.26
2018-08-17T00:01:01.159Z,17.27
2018-08-17T00:01:05.362Z,17.27
2018-08-17T00:01:09.456Z,17.26
2018-08-17T00:01:13.439Z,17.27
2018-08-17T00:01:17.749Z,17.26
2018-08-17T00:01:21.840Z,17.26
2018-08-17T00:01:26.042Z,17.26
2018-08-17T00:01:30.027Z,17.26
2018-08-17T00:01:34.116Z,17.25
2018-08-17T00:01:38.213Z,17.26
2018-08-17T00:01:42.414Z,17.26
2018-08-17T00:01:46.616Z,17.25
2018-08-17T00:01:50.819Z,17.26
2018-08-17T00:01:55.013Z,17.25
2018-08-17T00:01:59.212Z,17.25
2018-08-17T00:02:03.196Z,17.24
2018-08-17T00:02:07.288Z,17.24
2018-08-17T00:02:11.320Z,17.24
2018-08-17T00:02:15.519Z,17.23
2018-08-17T00:02:19.719Z,17.23
2018-08-17T00:02:23.922Z,17.23
2018-08-17T00:02:28.010Z,17.23
2018-08-17T00:02:32.102Z,17.23
2018-08-17T00:02:36.198Z,17.22
2018-08-17T00:02:40.296Z,17.22
2018-08-17T00:02:44.392Z,17.23
2018-08-17T00:02:48.488Z,17.23
2018-08-17T00:02:52.581Z,17.22
2018-08-17T00:02:56.775Z,17.22
2018-08-17T00:03:01.089Z,17.22
2018-08-17T00:03:05.081Z,17.22
2018-08-17T00:03:09.281Z,17.21
2018-08-17T00:03:13.525Z,17.22
2018-08-17T00:03:17.409Z,17.22
2018-08-17T00:03:21.614Z,17.21
2018-08-17T00:03:25.707Z,17.21
2018-08-17T00:03:29.807Z,17.21
2018-08-17T00:03:33.904Z,17.21
2018-08-17T00:03:37.891Z,17.21
2018-08-17T00:03:42.094Z,17.2
2018-08-17T00:03:46.198Z,17.21
2018-08-17T00:03:50.399Z,17.21
2018-08-17T00:03:54.492Z,17.21
2018-08-17T00:03:58.800Z,17.21
2018-08-17T00:04:02.789Z,17.2
2018-08-17T00:04:06.879Z,17.2
2018-08-17T00:04:10.974Z,17.2
2018-08-17T00:04:15.172Z,17.21
2018-08-17T00:04:19.375Z,17.2
2018-08-17T00:04:23.469Z,17.2
2018-08-17T00:04:27.458Z,17.2
2018-08-17T00:04:31.788Z,17.19
2018-08-17T00:04:36.101Z,17.19
2018-08-17T00:04:40.420Z,17.2
2018-08-17T00:04:44.411Z,17.19
2018-08-17T00:04:48.505Z,17.19
2018-08-17T00:04:52.707Z,17.19
2018-08-17T00:04:57.011Z,17.19
2018-08-17T00:05:01.001Z,17.19
2018-08-17T00:05:05.000Z,17.19
2018-08-17T00:05:09.299Z,17.19
2018-08-17T00:05:13.582Z,17.19
2018-08-17T00:05:18.173Z,17.19
2018-08-17T00:05:22.984Z,17.18
2018-08-17T00:05:27.933Z,17.18
2018-08-17T00:05:32.137Z,17.18
2018-08-17T00:05:36.460Z,17.18
2018-08-17T00:05:40.348Z,17.18
2018-08-17T00:05:44.551Z,17.18
2018-08-17T00:05:48.755Z,17.18
2018-08-17T00:05:52.952Z,17.18
2018-08-17T00:05:57.150Z,17.18
2018-08-17T00:06:01.456Z,17.18
2018-08-17T00:06:05.751Z,17.18
2018-08-17T00:06:09.846Z,17.18
2018-08-17T00:06:14.045Z,17.17
2018-08-17T00:06:18.346Z,17.17
2018-08-17T00:06:22.450Z,17.18
2018-08-17T00:06:26.755Z,17.17
2018-08-17T00:06:30.741Z,17.17
2018-08-17T00:06:35.044Z,17.17
2018-08-17T00:06:39.247Z,17.17
2018-08-17T00:06:43.335Z,17.17
2018-08-17T00:06:47.536Z,17.17
2018-08-17T00:06:51.625Z,17.17
2018-08-17T00:06:55.614Z,17.16
2018-08-17T00:06:59.703Z,17.16
2018-08-17T00:07:03.895Z,17.16
2018-08-17T00:07:08.091Z,17.16
2018-08-17T00:07:12.075Z,17.16
2018-08-17T00:07:16.165Z,17.15
2018-08-17T00:07:20.476Z,17.15
2018-08-17T00:07:24.681Z,17.15
2018-08-17T00:07:28.777Z,17.15
2018-08-17T00:07:32.971Z,17.15
2018-08-17T00:07:37.281Z,17.14
2018-08-17T00:07:41.582Z,17.15
2018-08-17T00:07:45.685Z,17.15
2018-08-17T00:07:49.997Z,17.14
2018-08-17T00:07:54.297Z,17.14
2018-08-17T00:07:58.493Z,17.14
2018-08-17T00:08:02.843Z,17.14
2018-08-17T00:08:07.037Z,17.13
2018-08-17T00:08:11.233Z,17.14
2018-08-17T00:08:15.446Z,17.13
2018-08-17T00:08:19.691Z,17.13
2018-08-17T00:08:23.995Z,17.14
2018-08-17T00:08:28.315Z,17.13
2018-08-17T00:08:32.410Z,17.13
2018-08-17T00:08:36.605Z,17.13
2018-08-17T00:08:40.805Z,17.12
2018-08-17T00:08:44.999Z,17.12
2018-08-17T00:08:49.309Z,17.12
2018-08-17T00:08:53.401Z,17.12
2018-08-17T00:08:57.596Z,17.12
2018-08-17T00:09:01.795Z,17.12
2018-08-17T00:09:05.780Z,17.12
2018-08-17T00:09:09.869Z,17.12
2018-08-17T00:09:14.169Z,17.11
2018-08-17T00:09:18.260Z,17.11
2018-08-17T00:09:22.463Z,17.12
2018-08-17T00:09:26.677Z,17.12
2018-08-17T00:09:30.767Z,17.11
2018-08-17T00:09:34.967Z,17.12
2018-08-17T00:09:39.054Z,17.12
2018-08-17T00:09:43.252Z,17.12
2018-08-17T00:09:47.343Z,17.12
2018-08-17T00:09:51.650Z,17.11
2018-08-17T00:09:55.955Z,17.12
2018-08-17T00:10:00.151Z,17.12
2018-08-17T00:10:04.345Z,17.11
2018-08-17T00:10:08.648Z,17.11
2018-08-17T00:10:12.959Z,17.12
2018-08-17T00:10:17.160Z,17.11
2018-08-17T00:10:21.462Z,17.11
2018-08-17T00:10:25.659Z,17.11
2018-08-17T00:10:29.972Z,17.11
2018-08-17T00:10:34.176Z,17.12
2018-08-17T00:10:38.499Z,17.12
2018-08-17T00:10:42.814Z,17.11
2018-08-17T00:10:47.011Z,17.11
2018-08-17T00:10:51.110Z,17.12
2018-08-17T00:10:55.311Z,17.11
2018-08-17T00:10:59.616Z,17.11
2018-08-17T00:11:03.704Z,17.1
2018-08-17T00:11:07.898Z,17.11
2018-08-17T00:11:12.105Z,17.11
2018-08-17T00:11:16.196Z,17.1
2018-08-17T00:11:20.292Z,17.1
2018-08-17T00:11:24.505Z,17.1
2018-08-17T00:11:28.813Z,17.11
2018-08-17T00:11:32.908Z,17.11
2018-08-17T00:11:37.007Z,17.11
2018-08-17T00:11:41.208Z,17.11
2018-08-17T00:11:45.408Z,17.11
2018-08-17T00:11:49.504Z,17.11
2018-08-17T00:11:53.492Z,17.1
2018-08-17T00:11:57.798Z,17.11
2018-08-17T00:12:02.207Z,17.11
2018-08-17T00:12:06.408Z,17.11
2018-08-17T00:12:10.505Z,17.1
2018-08-17T00:12:14.698Z,17.1
2018-08-17T00:12:19.004Z,17.11
2018-08-17T00:12:22.989Z,17.1
2018-08-17T00:12:27.190Z,17.1
2018-08-17T00:12:31.174Z,17.09
2018-08-17T00:12:35.477Z,17.11
2018-08-17T00:12:39.685Z,17.1
2018-08-17T00:12:43.985Z,17.1
2018-08-17T00:12:48.189Z,17.11
2018-08-17T00:12:52.504Z,17.1
2018-08-17T00:12:56.702Z,17.1
2018-08-17T00:13:00.898Z,17.1
2018-08-17T00:13:04.787Z,17.11
2018-08-17T00:13:08.886Z,17.09
2018-08-17T00:13:13.199Z,17.1
2018-08-17T00:13:17.502Z,17.09
2018-08-17T00:13:21.711Z,17.09
2018-08-17T00:13:25.804Z,17.09
2018-08-17T00:13:29.787Z,17.09
2018-08-17T00:13:34.089Z,17.1
2018-08-17T00:13:38.174Z,17.09
2018-08-17T00:13:42.271Z,17.1
2018-08-17T00:13:46.575Z,17.09
2018-08-17T00:13:50.660Z,17.08
2018-08-17T00:13:54.648Z,17.09
2018-08-17T00:13:58.959Z,17.09
2018-08-17T00:14:02.954Z,17.1
2018-08-17T00:14:06.938Z,17.1
2018-08-17T00:14:11.137Z,17.09
2018-08-17T00:14:15.338Z,17.09
2018-08-17T00:14:19.429Z,17.09
2018-08-17T00:14:23.629Z,17.1
2018-08-17T00:14:27.824Z,17.08
2018-08-17T00:14:31.917Z,17.09
2018-08-17T00:14:36.112Z,17.08
2018-08-17T00:14:40.333Z,17.08
2018-08-17T00:14:44.527Z,17.08
2018-08-17T00:14:48.720Z,17.09
2018-08-17T00:14:52.962Z,17.08
2018-08-17T00:14:57.051Z,17.09
2018-08-17T00:15:01.144Z,17.08
2018-08-17T00:15:05.129Z,17.07
2018-08-17T00:15:09.212Z,17.07
2018-08-17T00:15:13.567Z,17.08
2018-08-17T00:15:17.877Z,17.08
2018-08-17T00:15:21.971Z,17.08
2018-08-17T00:15:26.267Z,17.08
2018-08-17T00:15:30.356Z,17.08
2018-08-17T00:15:34.552Z,17.08
2018-08-17T00:15:38.792Z,17.08
2018-08-17T00:15:43.099Z,17.08
2018-08-17T00:15:47.292Z,17.07
2018-08-17T00:15:51.381Z,17.08
2018-08-17T00:15:55.693Z,17.06
2018-08-17T00:15:59.999Z,17.08
2018-08-17T00:16:04.091Z,17.08
2018-08-17T00:16:08.286Z,17.08
2018-08-17T00:16:12.480Z,17.08
2018-08-17T00:16:16.568Z,17.07
2018-08-17T00:16:20.764Z,17.08
2018-08-17T00:16:24.851Z,17.08
2018-08-17T00:16:29.053Z,17.07
2018-08-17T00:16:33.258Z,17.07
2018-08-17T00:16:37.459Z,17.07
2018-08-17T00:16:41.550Z,17.08
2018-08-17T00:16:45.852Z,17.07
2018-08-17T00:16:49.834Z,17.07
2018-08-17T00:16:54.030Z,17.07
2018-08-17T00:16:58.131Z,17.07
2018-08-17T00:17:02.227Z,17.07
2018-08-17T00:17:06.421Z,17.06
2018-08-17T00:17:10.719Z,17.07
2018-08-17T00:17:14.921Z,17.07
2018-08-17T00:17:19.225Z,17.07
2018-08-17T00:17:23.217Z,17.07
2018-08-17T00:17:27.310Z,17.07
2018-08-17T00:17:31.414Z,17.06
2018-08-17T00:17:35.609Z,17.08
2018-08-17T00:17:39.714Z,17.06
2018-08-17T00:17:44.020Z,17.07
2018-08-17T00:17:48.234Z,17.06
2018-08-17T00:17:52.531Z,17.07
2018-08-17T00:17:56.839Z,17.06
2018-08-17T00:18:01.142Z,17.07
2018-08-17T00:18:05.337Z,17.06
2018-08-17T00:18:09.429Z,17.06
2018-08-17T00:18:13.625Z,17.07
2018-08-17T00:18:17.924Z,17.08
2018-08-17T00:18:21.909Z,17.07
2018-08-17T00:18:26.219Z,17.06
2018-08-17T00:18:30.413Z,17.07
2018-08-17T00:18:34.721Z,17.08
2018-08-17T00:18:39.026Z,17.07
2018-08-17T00:18:43.232Z,17.07
2018-08-17T00:18:47.545Z,17.07
2018-08-17T00:18:51.746Z,17.08
2018-08-17T00:18:56.049Z,17.08
2018-08-17T00:19:00.253Z,17.07
2018-08-17T00:19:04.455Z,17.08
2018-08-17T00:19:08.548Z,17.07
2018-08-17T00:19:12.745Z,17.08
2018-08-17T00:19:17.047Z,17.08
2018-08-17T00:19:21.250Z,17.07
2018-08-17T00:19:25.446Z,17.07
2018-08-17T00:19:29.646Z,17.08
2018-08-17T00:19:33.840Z,17.08
2018-08-17T00:19:37.837Z,17.07
2018-08-17T00:19:42.045Z,17.08
2018-08-17T00:19:46.354Z,17.09
2018-08-17T00:19:50.652Z,17.08
2018-08-17T00:19:54.845Z,17.09
2018-08-17T00:19:59.042Z,17.08
2018-08-17T00:20:03.353Z,17.08
2018-08-17T00:20:07.449Z,17.09
2018-08-17T00:20:11.651Z,17.09
2018-08-17T00:20:15.848Z,17.09
2018-08-17T00:20:19.938Z,17.09
2018-08-17T00:20:24.133Z,17.09
2018-08-17T00:20:28.330Z,17.09
2018-08-17T00:20:32.420Z,17.09
2018-08-17T00:20:36.625Z,17.1
2018-08-17T00:20:40.926Z,17.1
2018-08-17T00:20:45.241Z,17.09
2018-08-17T00:20:49.436Z,17.09
2018-08-17T00:20:53.754Z,17.09
2018-08-17T00:20:58.053Z,17.09
2018-08-17T00:21:02.354Z,17.1
2018-08-17T00:21:06.651Z,17.09
2018-08-17T00:21:10.747Z,17.1
2018-08-17T00:21:15.056Z,17.1
2018-08-17T00:21:19.364Z,17.1
2018-08-17T00:21:23.453Z,17.1
2018-08-17T00:21:27.754Z,17.09
2018-08-17T00:21:31.840Z,17.1
2018-08-17T00:21:35.931Z,17.1
2018-08-17T00:21:40.026Z,17.1
2018-08-17T00:21:44.050Z,17.09
2018-08-17T00:21:48.351Z,17.1
2018-08-17T00:21:52.453Z,17.1
2018-08-17T00:21:56.652Z,17.09
2018-08-17T00:22:00.642Z,17.1
2018-08-17T00:22:04.850Z,17.1
2018-08-17T00:22:09.046Z,17.1
2018-08-17T00:22:13.257Z,17.1
2018-08-17T00:22:17.558Z,17.1
2018-08-17T00:22:21.754Z,17.1
2018-08-17T00:22:25.957Z,17.1
2018-08-17T00:22:30.151Z,17.1
2018-08-17T00:22:34.394Z,17.11
2018-08-17T00:22:38.490Z,17.1
2018-08-17T00:22:42.682Z,17.11
2018-08-17T00:22:46.995Z,17.1
2018-08-17T00:22:51.195Z,17.11
2018-08-17T00:22:55.388Z,17.11
2018-08-17T00:22:59.595Z,17.11
2018-08-17T00:23:03.905Z,17.11
2018-08-17T00:23:08.098Z,17.11
2018-08-17T00:23:12.205Z,17.11
2018-08-17T00:23:16.507Z,17.11
2018-08-17T00:23:20.814Z,17.11
2018-08-17T00:23:25.021Z,17.11
2018-08-17T00:23:29.219Z,17.11
2018-08-17T00:23:33.516Z,17.11
2018-08-17T00:23:37.606Z,17.12
2018-08-17T00:23:41.694Z,17.12
2018-08-17T00:23:45.993Z,17.12
2018-08-17T00:23:50.186Z,17.11
2018-08-17T00:23:54.278Z,17.12
2018-08-17T00:23:58.586Z,17.12
2018-08-17T00:24:02.728Z,17.12
2018-08-17T00:24:06.932Z,17.12
2018-08-17T00:24:10.918Z,17.12
2018-08-17T00:24:15.117Z,17.12
2018-08-17T00:24:19.321Z,17.12
2018-08-17T00:24:23.412Z,17.12
2018-08-17T00:24:27.619Z,17.12
2018-08-17T00:24:31.966Z,17.13
2018-08-17T00:24:36.166Z,17.12
2018-08-17T00:24:40.466Z,17.13
2018-08-17T00:24:44.769Z,17.12
2018-08-17T00:24:48.866Z,17.12
2018-08-17T00:24:52.958Z,17.13
2018-08-17T00:24:57.265Z,17.13
2018-08-17T00:25:01.469Z,17.13
2018-08-17T00:25:05.594Z,17.13
2018-08-17T00:25:09.794Z,17.12
2018-08-17T00:25:13.886Z,17.13
2018-08-17T00:25:18.195Z,17.13
2018-08-17T00:25:22.401Z,17.13
2018-08-17T00:25:26.492Z,17.12
2018-08-17T00:25:30.375Z,17.14
2018-08-17T00:25:34.576Z,17.13
2018-08-17T00:25:38.672Z,17.13
2018-08-17T00:25:42.972Z,17.12
2018-08-17T00:25:47.270Z,17.13
2018-08-17T00:25:51.460Z,17.13
2018-08-17T00:25:55.553Z,17.13
2018-08-17T00:25:59.753Z,17.13
2018-08-17T00:26:04.097Z,17.13
2018-08-17T00:26:08.293Z,17.13
2018-08-17T00:26:12.388Z,17.12
2018-08-17T00:26:16.585Z,17.13
2018-08-17T00:26:20.782Z,17.13
2018-08-17T00:26:25.088Z,17.12
2018-08-17T00:26:29.178Z,17.13
2018-08-17T00:26:33.381Z,17.13
2018-08-17T00:26:37.700Z,17.13
2018-08-17T00:26:42.004Z,17.13
2018-08-17T00:26:46.102Z,17.13
2018-08-17T00:26:50.399Z,17.13
2018-08-17T00:26:54.596Z,17.13
2018-08-17T00:26:58.795Z,17.13
2018-08-17T00:27:03.001Z,17.13
2018-08-17T00:27:07.312Z,17.13
2018-08-17T00:27:11.397Z,17.13
2018-08-17T00:27:15.595Z,17.13
2018-08-17T00:27:19.797Z,17.12
2018-08-17T00:27:23.886Z,17.13
2018-08-17T00:27:28.128Z,17.13
2018-08-17T00:27:32.434Z,17.12
2018-08-17T00:27:36.630Z,17.13
2018-08-17T00:27:40.723Z,17.13
2018-08-17T00:27:44.601Z,17.13
2018-08-17T00:27:48.905Z,17.13
2018-08-17T00:27:53.203Z,17.13
2018-08-17T00:27:57.397Z,17.13
2018-08-17T00:28:01.593Z,17.13
2018-08-17T00:28:05.575Z,17.12
2018-08-17T00:28:09.772Z,17.12
2018-08-17T00:28:14.068Z,17.13
2018-08-17T00:28:18.387Z,17.12
2018-08-17T00:28:22.858Z,17.12
2018-08-17T00:28:27.162Z,17.11
2018-08-17T00:28:31.252Z,17.12
2018-08-17T00:28:35.555Z,17.12
2018-08-17T00:28:39.861Z,17.11
2018-08-17T00:28:44.172Z,17.12
2018-08-17T00:28:48.152Z,17.11
2018-08-17T00:28:52.345Z,17.11
2018-08-17T00:28:56.651Z,17.11
2018-08-17T00:29:00.742Z,17.11
2018-08-17T00:29:04.934Z,17.11
2018-08-17T00:29:09.142Z,17.11
2018-08-17T00:29:13.340Z,17.11
2018-08-17T00:29:17.651Z,17.11
2018-08-17T00:29:21.956Z,17.1
2018-08-17T00:29:26.148Z,17.1
2018-08-17T00:29:30.239Z,17.1
2018-08-17T00:29:34.439Z,17.1
2018-08-17T00:29:38.637Z,17.1
2018-08-17T00:29:42.940Z,17.11
2018-08-17T00:29:46.930Z,17.1
2018-08-17T00:29:51.134Z,17.1
2018-08-17T00:29:55.338Z,17.1
2018-08-17T00:29:59.639Z,17.1
2018-08-17T00:30:03.848Z,17.09
2018-08-17T00:30:08.057Z,17.09
2018-08-17T00:30:12.145Z,17.09
2018-08-17T00:30:16.243Z,17.09
2018-08-17T00:30:20.340Z,17.08
2018-08-17T00:30:24.426Z,17.1
2018-08-17T00:30:28.519Z,17.09
2018-08-17T00:30:32.827Z,17.09
2018-08-17T00:30:37.128Z,17.08
2018-08-17T00:30:41.117Z,17.08
2018-08-17T00:30:45.212Z,17.09
2018-08-17T00:30:49.449Z,17.08
2018-08-17T00:30:53.756Z,17.09
2018-08-17T00:30:57.854Z,17.08
2018-08-17T00:31:02.271Z,17.08
2018-08-17T00:31:06.571Z,17.07
2018-08-17T00:31:10.764Z,17.08
2018-08-17T00:31:14.962Z,17.08
2018-08-17T00:31:19.273Z,17.07
2018-08-17T00:31:23.585Z,17.07
2018-08-17T00:31:27.782Z,17.07
2018-08-17T00:31:31.987Z,17.07
2018-08-17T00:31:36.178Z,17.08
2018-08-17T00:31:40.375Z,17.08
2018-08-17T00:31:44.573Z,17.07
2018-08-17T00:31:48.766Z,17.07
2018-08-17T00:31:52.866Z,17.08
2018-08-17T00:31:57.171Z,17.07
2018-08-17T00:32:01.379Z,17.07
2018-08-17T00:32:05.679Z,17.07
2018-08-17T00:32:09.773Z,17.08
2018-08-17T00:32:13.865Z,17.07
2018-08-17T00:32:18.068Z,17.07
2018-08-17T00:32:22.050Z,17.07
2018-08-17T00:32:26.245Z,17.07
2018-08-17T00:32:30.543Z,17.07
2018-08-17T00:32:34.631Z,17.07
2018-08-17T00:32:38.726Z,17.06
2018-08-17T00:32:42.918Z,17.07
2018-08-17T00:32:47.114Z,17.06
2018-08-17T00:32:51.311Z,17.07
2018-08-17T00:32:55.616Z,17.07
2018-08-17T00:32:59.815Z,17.08
2018-08-17T00:33:03.799Z,17.07
2018-08-17T00:33:08.003Z,17.08
2018-08-17T00:33:12.204Z,17.07
2018-08-17T00:33:16.523Z,17.07
2018-08-17T00:33:20.761Z,17.07
2018-08-17T00:33:24.974Z,17.07
2018-08-17T00:33:29.065Z,17.07
2018-08-17T00:33:33.375Z,17.07
2018-08-17T00:33:37.568Z,17.07
2018-08-17T00:33:41.780Z,17.08
2018-08-17T00:33:46.081Z,17.07
2018-08-17T00:33:50.063Z,17.07
2018-08-17T00:33:54.264Z,17.08
2018-08-17T00:33:58.570Z,17.09
2018-08-17T00:34:02.662Z,17.08
2018-08-17T00:34:06.856Z,17.08
2018-08-17T00:34:11.051Z,17.07
2018-08-17T00:34:15.249Z,17.08
2018-08-17T00:34:19.448Z,17.09
2018-08-17T00:34:23.653Z,17.08
2018-08-17T00:34:27.638Z,17.08
2018-08-17T00:34:31.840Z,17.08
2018-08-17T00:34:36.039Z,17.08
2018-08-17T00:34:40.347Z,17.08
2018-08-17T00:34:44.647Z,17.08
2018-08-17T00:34:48.850Z,17.08
2018-08-17T00:34:53.155Z,17.08
2018-08-17T00:34:57.358Z,17.07
2018-08-17T00:35:01.560Z,17.09
2018-08-17T00:35:05.750Z,17.08
2018-08-17T00:35:10.045Z,17.08
2018-08-17T00:35:14.347Z,17.09
2018-08-17T00:35:18.433Z,17.09
2018-08-17T00:35:22.627Z,17.08
2018-08-17T00:35:26.821Z,17.09
2018-08-17T00:35:31.013Z,17.08
2018-08-17T00:35:35.101Z,17.09
2018-08-17T00:35:39.296Z,17.08
2018-08-17T00:35:43.492Z,17.08
2018-08-17T00:35:47.683Z,17.09
2018-08-17T00:35:51.985Z,17.08
2018-08-17T00:35:56.290Z,17.08
2018-08-17T00:36:00.481Z,17.08
2018-08-17T00:36:04.576Z,17.09
2018-08-17T00:36:08.671Z,17.09
2018-08-17T00:36:12.974Z,17.08
2018-08-17T00:36:17.064Z,17.08
2018-08-17T00:36:21.258Z,17.08
2018-08-17T00:36:25.561Z,17.08
2018-08-17T00:36:29.649Z,17.07
2018-08-17T00:36:33.955Z,17.08
2018-08-17T00:36:38.149Z,17.08
2018-08-17T00:36:42.344Z,17.09
2018-08-17T00:36:46.325Z,17.08
2018-08-17T00:36:50.535Z,17.07
2018-08-17T00:36:54.629Z,17.08
2018-08-17T00:36:58.714Z,17.09
2018-08-17T00:37:02.914Z,17.08
2018-08-17T00:37:06.898Z,17.09
2018-08-17T00:37:11.203Z,17.08
2018-08-17T00:37:15.407Z,17.08
2018-08-17T00:37:19.708Z,17.09
2018-08-17T00:37:24.011Z,17.08
2018-08-17T00:37:28.207Z,17.09
2018-08-17T00:37:32.514Z,17.09
2018-08-17T00:37:36.606Z,17.09
2018-08-17T00:37:40.909Z,17.09
2018-08-17T00:37:45.110Z,17.1
2018-08-17T00:37:49.311Z,17.09
2018-08-17T00:37:53.509Z,17.09
2018-08-17T00:37:57.816Z,17.1
2018-08-17T00:38:01.913Z,17.09
2018-08-17T00:38:06.006Z,17.08
2018-08-17T00:38:10.305Z,17.09
2018-08-17T00:38:14.499Z,17.09
2018-08-17T00:38:18.799Z,17.09
2018-08-17T00:38:22.890Z,17.1
2018-08-17T00:38:27.194Z,17.1
2018-08-17T00:38:31.386Z,17.08
2018-08-17T00:38:35.476Z,17.09
2018-08-17T00:38:39.561Z,17.08
2018-08-17T00:38:43.864Z,17.09
2018-08-17T00:38:48.063Z,17.09
2018-08-17T00:38:52.265Z,17.1
2018-08-17T00:38:56.568Z,17.1
2018-08-17T00:39:00.663Z,17.1
2018-08-17T00:39:04.755Z,17.1
2018-08-17T00:39:08.848Z,17.09
2018-08-17T00:39:13.041Z,17.09
2018-08-17T00:39:17.132Z,17.1
2018-08-17T00:39:21.433Z,17.1
2018-08-17T00:39:25.635Z,17.11
2018-08-17T00:39:29.832Z,17.11
2018-08-17T00:39:34.029Z,17.1
2018-08-17T00:39:38.338Z,17.1
2018-08-17T00:39:42.529Z,17.1
2018-08-17T00:39:46.833Z,17.11
2018-08-17T00:39:51.139Z,17.11
2018-08-17T00:39:55.340Z,17.11
2018-08-17T00:39:59.430Z,17.11
2018-08-17T00:40:03.638Z,17.11
2018-08-17T00:40:07.626Z,17.11
2018-08-17T00:40:11.943Z,17.11
2018-08-17T00:40:16.134Z,17.11
2018-08-17T00:40:20.229Z,17.12
2018-08-17T00:40:24.432Z,17.11
2018-08-17T00:40:28.633Z,17.11
2018-08-17T00:40:32.938Z,17.12
2018-08-17T00:40:37.138Z,17.11
2018-08-17T00:40:41.335Z,17.11
2018-08-17T00:40:45.529Z,17.11
2018-08-17T00:40:49.726Z,17.12
2018-08-17T00:40:53.712Z,17.12
2018-08-17T00:40:57.900Z,17.12
2018-08-17T00:41:02.138Z,17.12
2018-08-17T00:41:06.225Z,17.12
2018-08-17T00:41:10.418Z,17.12
2018-08-17T00:41:14.616Z,17.12
2018-08-17T00:41:18.711Z,17.12
2018-08-17T00:41:22.906Z,17.12
2018-08-17T00:41:27.235Z,17.12
2018-08-17T00:41:31.225Z,17.13
2018-08-17T00:41:35.318Z,17.12
2018-08-17T00:41:39.411Z,17.13
2018-08-17T00:41:43.608Z,17.13
2018-08-17T00:41:47.912Z,17.12
2018-08-17T00:41:52.112Z,17.13
2018-08-17T00:41:56.419Z,17.14
2018-08-17T00:42:00.725Z,17.13
2018-08-17T00:42:04.819Z,17.12
2018-08-17T00:42:08.913Z,17.13
2018-08-17T00:42:13.241Z,17.14
2018-08-17T00:42:17.226Z,17.13
2018-08-17T00:42:21.535Z,17.13
2018-08-17T00:42:25.850Z,17.13
2018-08-17T00:42:30.097Z,17.13
2018-08-17T00:42:34.301Z,17.13
2018-08-17T00:42:38.605Z,17.13
2018-08-17T00:42:42.809Z,17.14
2018-08-17T00:42:46.901Z,17.13
2018-08-17T00:42:51.208Z,17.13
2018-08-17T00:42:55.204Z,17.14
2018-08-17T00:42:59.305Z,17.14
2018-08-17T00:43:03.507Z,17.14
2018-08-17T00:43:07.818Z,17.14
2018-08-17T00:43:12.119Z,17.14
2018-08-17T00:43:16.467Z,17.14
2018-08-17T00:43:20.663Z,17.14
2018-08-17T00:43:24.751Z,17.14
2018-08-17T00:43:28.951Z,17.14
2018-08-17T00:43:33.262Z,17.14
2018-08-17T00:43:37.360Z,17.14
2018-08-17T00:43:41.713Z,17.15
2018-08-17T00:43:45.906Z,17.15
2018-08-17T00:43:50.213Z,17.15
2018-08-17T00:43:54.514Z,17.15
2018-08-17T00:43:58.606Z,17.16
2018-08-17T00:44:02.690Z,17.15
2018-08-17T00:44:07.003Z,17.15
2018-08-17T00:44:11.201Z,17.16
2018-08-17T00:44:15.396Z,17.16
2018-08-17T00:44:19.489Z,17.16
2018-08-17T00:44:23.784Z,17.16
2018-08-17T00:44:28.130Z,17.15
2018-08-17T00:44:32.324Z,17.15
2018-08-17T00:44:36.522Z,17.16
2018-08-17T00:44:40.711Z,17.16
2018-08-17T00:44:44.914Z,17.15
2018-08-17T00:44:49.010Z,17.16
2018-08-17T00:44:53.314Z,17.17
2018-08-17T00:44:57.300Z,17.16
2018-08-17T00:45:01.502Z,17.16
2018-08-17T00:45:05.594Z,17.17
2018-08-17T00:45:09.908Z,17.17
2018-08-17T00:45:14.100Z,17.16
2018-08-17T00:45:18.339Z,17.16
2018-08-17T00:45:22.639Z,17.16
2018-08-17T00:45:26.831Z,17.16
2018-08-17T00:45:31.030Z,17.16
2018-08-17T00:45:35.340Z,17.17
2018-08-17T00:45:39.646Z,17.17
2018-08-17T00:45:43.946Z,17.17
2018-08-17T00:45:48.144Z,17.16
2018-08-17T00:45:52.460Z,17.17
2018-08-17T00:45:56.658Z,17.17
2018-08-17T00:46:00.849Z,17.17
2018-08-17T00:46:04.939Z,17.18
2018-08-17T00:46:09.240Z,17.18
2018-08-17T00:46:13.328Z,17.17
2018-08-17T00:46:17.524Z,17.18
2018-08-17T00:46:21.718Z,17.18
2018-08-17T00:46:25.907Z,17.17
2018-08-17T00:46:29.887Z,17.18
2018-08-17T00:46:34.083Z,17.18
2018-08-17T00:46:38.387Z,17.18
2018-08-17T00:46:42.726Z,17.19
2018-08-17T00:46:47.041Z,17.18
2018-08-17T00:46:51.238Z,17.19
2018-08-17T00:46:55.432Z,17.18
2018-08-17T00:46:59.632Z,17.19
2018-08-17T00:47:03.719Z,17.19
2018-08-17T00:47:07.809Z,17.19
2018-08-17T00:47:12.127Z,17.2
2018-08-17T00:47:16.441Z,17.19
2018-08-17T00:47:20.535Z,17.2
2018-08-17T00:47:24.837Z,17.19
2018-08-17T00:47:29.032Z,17.2
2018-08-17T00:47:33.291Z,17.2
2018-08-17T00:47:37.608Z,17.2
2018-08-17T00:47:41.911Z,17.19
2018-08-17T00:47:46.001Z,17.2
2018-08-17T00:47:50.199Z,17.2
2018-08-17T00:47:54.506Z,17.2
2018-08-17T00:47:58.945Z,17.21
2018-08-17T00:48:03.665Z,17.2
2018-08-17T00:48:08.060Z,17.2
2018-08-17T00:48:12.773Z,17.21
2018-08-17T00:48:17.065Z,17.2
2018-08-17T00:48:21.268Z,17.2
2018-08-17T00:48:25.576Z,17.21
2018-08-17T00:48:29.785Z,17.21
2018-08-17T00:48:34.135Z,17.22
2018-08-17T00:48:38.349Z,17.21
2018-08-17T00:48:42.651Z,17.21
2018-08-17T00:48:46.850Z,17.21
2018-08-17T00:48:51.047Z,17.21
2018-08-17T00:48:55.356Z,17.21
2018-08-17T00:48:59.235Z,17.21
2018-08-17T00:49:03.322Z,17.21
2018-08-17T00:49:07.571Z,17.22
2018-08-17T00:49:12.090Z,17.21
2018-08-17T00:49:16.406Z,17.21
2018-08-17T00:49:20.745Z,17.2
2018-08-17T00:49:24.840Z,17.21
2018-08-17T00:49:28.717Z,17.22
2018-08-17T00:49:32.820Z,17.21
2018-08-17T00:49:37.030Z,17.21
2018-08-17T00:49:41.227Z,17.21
2018-08-17T00:49:45.220Z,17.2
2018-08-17T00:49:49.533Z,17.21
2018-08-17T00:49:53.728Z,17.21
2018-08-17T00:49:58.057Z,17.21
2018-08-17T00:50:02.432Z,17.21
2018-08-17T00:50:06.648Z,17.22
2018-08-17T00:50:10.854Z,17.22
2018-08-17T00:50:15.087Z,17.22
2018-08-17T00:50:19.285Z,17.21
2018-08-17T00:50:23.390Z,17.22
2018-08-17T00:50:27.590Z,17.22
2018-08-17T00:50:31.703Z,17.21
2018-08-17T00:50:35.923Z,17.22
2018-08-17T00:50:40.231Z,17.22
2018-08-17T00:50:44.424Z,17.21
2018-08-17T00:50:48.519Z,17.22
2018-08-17T00:50:52.616Z,17.22
2018-08-17T00:50:56.812Z,17.22
2018-08-17T00:51:00.794Z,17.22
2018-08-17T00:51:04.983Z,17.22
2018-08-17T00:51:09.318Z,17.22
2018-08-17T00:51:13.517Z,17.22
2018-08-17T00:51:17.509Z,17.22
2018-08-17T00:51:21.867Z,17.22
2018-08-17T00:51:26.063Z,17.22
2018-08-17T00:51:30.053Z,17.23
2018-08-17T00:51:34.275Z,17.21
2018-08-17T00:51:38.539Z,17.22
2018-08-17T00:51:42.845Z,17.23
2018-08-17T00:51:46.834Z,17.23
2018-08-17T00:51:51.029Z,17.21
2018-08-17T00:51:55.128Z,17.22
2018-08-17T00:51:59.433Z,17.22
2018-08-17T00:52:03.889Z,17.22
2018-08-17T00:52:07.869Z,17.22
2018-08-17T00:52:11.960Z,17.21
2018-08-17T00:52:15.950Z,17.21
2018-08-17T00:52:20.176Z,17.21
2018-08-17T00:52:24.377Z,17.21
2018-08-17T00:52:28.576Z,17.21
2018-08-17T00:52:32.804Z,17.22
2018-08-17T00:52:37.105Z,17.21
2018-08-17T00:52:41.412Z,17.21
2018-08-17T00:52:45.619Z,17.21
2018-08-17T00:52:49.825Z,17.22
2018-08-17T00:52:54.139Z,17.2
2018-08-17T00:52:58.442Z,17.2
2018-08-17T00:53:02.531Z,17.22
2018-08-17T00:53:06.778Z,17.2
2018-08-17T00:53:10.872Z,17.2
2018-08-17T00:53:15.065Z,17.2
2018-08-17T00:53:19.062Z,17.2
2018-08-17T00:53:23.159Z,17.2
2018-08-17T00:53:27.460Z,17.2
2018-08-17T00:53:31.775Z,17.2
2018-08-17T00:53:35.870Z,17.19
2018-08-17T00:53:40.175Z,17.2
2018-08-17T00:53:44.379Z,17.19
2018-08-17T00:53:48.581Z,17.19
2018-08-17T00:53:52.785Z,17.19
2018-08-17T00:53:56.879Z,17.18
2018-08-17T00:54:01.071Z,17.19
2018-08-17T00:54:05.166Z,17.19
2018-08-17T00:54:09.256Z,17.19
2018-08-17T00:54:13.474Z,17.19